createdAt,value
2022-11-25T00:01:12.691Z,100921.88
2022-11-25T00:03:40.672Z,100917.38
2022-11-25T00:06:21.995Z,100915.63
2022-11-25T00:08:54.765Z,100919.88
2022-11-25T00:11:21.386Z,100908.41
2022-11-25T00:13:48.591Z,100909.03
2022-11-25T00:16:20.062Z,100906.22
2022-11-25T00:18:52.217Z,100904.31
2022-11-25T00:21:28.934Z,100900.78
2022-11-25T00:23:57.886Z,100887.63
2022-11-25T00:26:28.944Z,100893.72
2022-11-25T00:28:58.814Z,100898.03
2022-11-25T00:31:29.734Z,100897.03
2022-11-25T00:33:56.671Z,100894.44
2022-11-25T00:36:28.924Z,100889.16
2022-11-25T00:39:00.792Z,100896.00
2022-11-25T00:41:47.013Z,100889.91
2022-11-25T00:44:38.890Z,100896.78
2022-11-25T00:47:14.483Z,100894.19
2022-11-25T00:49:43.802Z,100889.00
2022-11-25T00:52:15.358Z,100885.44
2022-11-25T00:54:45.416Z,100887.25
2022-11-25T00:57:13.423Z,100877.63
2022-11-25T00:59:40.363Z,100890.63
2022-11-25T01:02:07.415Z,100887.13
2022-11-25T01:04:36.079Z,100881.00
2022-11-25T01:07:04.064Z,100884.44
2022-11-25T01:09:31.063Z,100884.44
2022-11-25T01:11:57.907Z,100881.81
2022-11-25T01:14:24.713Z,100873.19
2022-11-25T01:16:54.684Z,100866.25
2022-11-25T01:19:22.164Z,100867.94
2022-11-25T01:21:48.832Z,100874.16
2022-11-25T01:24:16.614Z,100873.31
2022-11-25T01:26:44.719Z,100876.78
2022-11-25T01:29:17.565Z,100880.31
2022-11-25T01:31:45.502Z,100873.41
2022-11-25T01:34:18.558Z,100874.25
2022-11-25T01:36:45.811Z,100875.16
2022-11-25T01:39:18.061Z,100889.09
2022-11-25T01:41:45.816Z,100883.00
2022-11-25T01:44:18.639Z,100885.66
2022-11-25T01:47:04.830Z,100884.00
2022-11-25T01:49:52.223Z,100890.06
2022-11-25T01:52:32.634Z,100895.28
2022-11-25T01:55:06.957Z,100893.56
2022-11-25T01:57:42.298Z,100891.88
2022-11-25T02:00:11.051Z,100895.44
2022-11-25T02:02:38.351Z,100894.59
2022-11-25T02:05:09.527Z,100905.88
2022-11-25T02:07:44.222Z,100903.34
2022-11-25T02:10:14.755Z,100910.28
2022-11-25T02:12:43.699Z,100912.88
2022-11-25T02:15:13.229Z,100915.59
2022-11-25T02:17:40.838Z,100915.63
2022-11-25T02:20:11.664Z,100919.09
2022-11-25T02:22:55.129Z,100926.94
2022-11-25T02:25:34.284Z,100925.19
2022-11-25T02:28:16.803Z,100931.38
2022-11-25T02:30:44.691Z,100934.84
2022-11-25T02:33:12.153Z,100929.81
2022-11-25T02:35:51.196Z,100933.38
2022-11-25T02:38:32.405Z,100925.59
2022-11-25T02:41:16.531Z,100922.25
2022-11-25T02:43:43.360Z,100929.25
2022-11-25T02:46:21.598Z,100925.00
2022-11-25T02:49:09.347Z,100915.53
2022-11-25T02:51:41.478Z,100915.56
2022-11-25T02:54:08.200Z,100906.91
2022-11-25T02:56:36.401Z,100907.03
2022-11-25T02:59:03.661Z,100888.94
2022-11-25T03:01:35.498Z,100888.16
2022-11-25T03:04:04.959Z,100918.53
2022-11-25T03:06:31.640Z,100907.28
2022-11-25T03:09:05.381Z,100921.22
2022-11-25T03:11:53.388Z,100914.34
2022-11-25T03:14:20.338Z,100915.25
2022-11-25T03:16:47.084Z,100924.00
2022-11-25T03:19:14.048Z,100929.25
2022-11-25T03:21:40.667Z,100932.72
2022-11-25T03:24:07.350Z,100917.13
2022-11-25T03:26:35.809Z,100907.63
2022-11-25T03:29:03.057Z,100903.41
2022-11-25T03:31:30.113Z,100919.06
2022-11-25T03:33:58.476Z,100933.81
2022-11-25T03:36:25.599Z,100922.53
2022-11-25T03:38:52.207Z,100912.91
2022-11-25T03:41:19.784Z,100932.81
2022-11-25T03:43:47.525Z,100949.31
2022-11-25T03:46:16.589Z,100937.16
2022-11-25T03:48:44.339Z,100948.31
2022-11-25T03:51:11.130Z,100943.06
2022-11-25T03:53:38.314Z,100944.81
2022-11-25T03:56:05.317Z,100943.00
2022-11-25T03:58:33.496Z,100940.34
2022-11-25T04:01:01.958Z,100942.06
2022-11-25T04:03:30.194Z,100946.47
2022-11-25T04:06:02.224Z,100953.41
2022-11-25T04:08:32.010Z,100960.25
2022-11-25T04:11:01.644Z,100956.78
2022-11-25T04:13:28.365Z,100951.59
2022-11-25T04:15:59.063Z,100958.44
2022-11-25T04:18:26.435Z,100959.34
2022-11-25T04:20:54.449Z,100961.09
2022-11-25T04:23:21.363Z,100966.19
2022-11-25T04:25:50.548Z,100967.84
2022-11-25T04:28:18.228Z,100971.97
2022-11-25T04:30:46.160Z,100983.22
2022-11-25T04:33:12.689Z,100980.63
2022-11-25T04:35:39.225Z,100982.38
2022-11-25T04:38:06.024Z,100978.97
2022-11-25T04:40:33.169Z,100986.75
2022-11-25T04:43:06.044Z,100988.47
2022-11-25T04:45:58.694Z,100982.34
2022-11-25T04:48:27.273Z,100991.03
2022-11-25T04:50:55.756Z,100995.25
2022-11-25T04:53:25.081Z,101003.84
2022-11-25T04:55:51.763Z,101007.19
2022-11-25T04:58:38.638Z,101006.31
2022-11-25T05:01:05.687Z,101010.56
2022-11-25T05:03:32.592Z,101005.25
2022-11-25T05:06:08.182Z,101014.84
2022-11-25T05:08:35.707Z,101019.03
2022-11-25T05:11:02.406Z,101033.78
2022-11-25T05:13:28.916Z,101026.72
2022-11-25T05:15:59.162Z,101032.66
2022-11-25T05:18:26.934Z,101038.63
2022-11-25T05:20:54.012Z,101044.56
2022-11-25T05:23:20.857Z,101042.69
2022-11-25T05:25:47.729Z,101047.72
2022-11-25T05:28:14.623Z,101049.34
2022-11-25T05:30:45.852Z,101047.47
2022-11-25T05:33:12.537Z,101052.47
2022-11-25T05:35:40.029Z,101054.03
2022-11-25T05:38:09.053Z,101054.69
2022-11-25T05:40:35.556Z,101052.75
2022-11-25T05:43:03.049Z,101065.56
2022-11-25T05:45:30.673Z,101063.56
2022-11-25T05:47:58.118Z,101061.63
2022-11-25T05:50:26.218Z,101061.53
2022-11-25T05:52:53.205Z,101063.94
2022-11-25T05:55:20.156Z,101064.59
2022-11-25T05:57:46.853Z,101068.84
2022-11-25T06:00:14.245Z,101067.91
2022-11-25T06:02:44.556Z,101072.97
2022-11-25T06:05:11.601Z,101081.59
2022-11-25T06:07:38.146Z,101077.16
2022-11-25T06:10:05.763Z,101077.09
2022-11-25T06:12:32.603Z,101074.50
2022-11-25T06:14:59.443Z,101085.81
2022-11-25T06:17:26.338Z,101084.13
2022-11-25T06:19:53.247Z,101085.03
2022-11-25T06:22:19.869Z,101085.88
2022-11-25T06:24:50.988Z,101082.34
2022-11-25T06:27:23.424Z,101089.44
2022-11-25T06:29:50.820Z,101081.53
2022-11-25T06:32:17.875Z,101096.38
2022-11-25T06:34:45.143Z,101091.19
2022-11-25T06:37:14.020Z,101105.13
2022-11-25T06:39:41.283Z,101111.97
2022-11-25T06:42:08.114Z,101105.88
2022-11-25T06:44:36.629Z,101111.84
2022-11-25T06:47:03.436Z,101114.38
2022-11-25T06:49:30.741Z,101129.06
2022-11-25T06:52:00.324Z,101128.94
2022-11-25T06:54:26.974Z,101128.94
2022-11-25T06:56:54.104Z,101142.75
2022-11-25T06:59:22.325Z,101142.63
2022-11-25T07:01:50.303Z,101143.47
2022-11-25T07:04:16.920Z,101145.09
2022-11-25T07:06:43.720Z,101146.59
2022-11-25T07:09:10.508Z,101138.75
2022-11-25T07:11:40.601Z,101153.34
2022-11-25T07:14:12.688Z,101157.66
2022-11-25T07:16:43.520Z,101154.09
2022-11-25T07:19:12.401Z,101167.91
2022-11-25T07:21:39.460Z,101184.25
2022-11-25T07:24:07.511Z,101181.72
2022-11-25T07:26:38.641Z,101184.09
2022-11-25T07:29:23.507Z,101177.78
2022-11-25T07:31:55.453Z,101183.84
2022-11-25T07:34:23.994Z,101184.66
2022-11-25T07:36:51.062Z,101176.00
2022-11-25T07:39:23.474Z,101188.97
2022-11-25T07:41:51.657Z,101193.47
2022-11-25T07:44:18.855Z,101195.25
2022-11-25T07:46:49.463Z,101198.78
2022-11-25T07:49:19.115Z,101207.66
2022-11-25T07:51:53.827Z,101216.38
2022-11-25T07:54:21.998Z,101223.59
2022-11-25T07:56:49.905Z,101214.38
2022-11-25T07:59:24.872Z,101216.03
2022-11-25T08:01:55.693Z,101233.09
2022-11-25T08:04:22.984Z,101236.50
2022-11-25T08:06:52.153Z,101233.50
2022-11-25T08:09:21.759Z,101241.91
2022-11-25T08:11:52.088Z,101231.13
2022-11-25T08:14:19.162Z,101237.22
2022-11-25T08:16:45.957Z,101240.53
2022-11-25T08:19:15.478Z,101241.88
2022-11-25T08:21:42.956Z,101252.75
2022-11-25T08:24:18.065Z,101256.19
2022-11-25T08:26:48.604Z,101265.16
2022-11-25T08:29:17.995Z,101264.22
2022-11-25T08:31:44.673Z,101272.66
2022-11-25T08:34:20.962Z,101273.88
2022-11-25T08:36:48.805Z,101271.38
2022-11-25T08:39:51.325Z,101276.94
2022-11-25T08:42:07.810Z,101281.81
2022-11-25T08:44:37.929Z,101290.59
2022-11-25T08:47:06.817Z,101289.13
2022-11-25T08:49:39.063Z,101293.31
2022-11-25T08:52:08.123Z,101288.66
2022-11-25T08:54:34.841Z,101294.66
2022-11-25T08:57:03.565Z,101287.47
2022-11-25T08:59:32.485Z,101296.03
2022-11-25T09:02:00.719Z,101285.34
2022-11-25T09:04:27.480Z,101284.56
2022-11-25T09:06:54.324Z,101291.69
2022-11-25T09:09:20.981Z,101295.81
2022-11-25T09:11:47.745Z,101304.59
2022-11-25T09:14:14.456Z,101318.97
2022-11-25T09:16:43.540Z,101322.78
2022-11-25T09:19:10.902Z,101325.13
2022-11-25T09:21:37.921Z,101333.63
2022-11-25T09:24:06.783Z,101334.22
2022-11-25T09:26:35.836Z,101341.84
2022-11-25T09:29:03.381Z,101339.50
2022-11-25T09:31:30.417Z,101340.31
2022-11-25T09:34:00.035Z,101350.75
2022-11-25T09:36:26.697Z,101345.66
2022-11-25T09:38:57.565Z,101349.25
2022-11-25T09:42:04.844Z,101354.47
2022-11-25T09:45:09.236Z,101360.69
2022-11-25T09:47:35.750Z,101366.72
2022-11-25T09:50:12.925Z,101366.69
2022-11-25T09:53:10.904Z,101373.09
2022-11-25T09:55:45.862Z,101373.44
2022-11-25T09:58:39.029Z,101370.91
2022-11-25T10:01:14.011Z,101372.69
2022-11-25T10:03:47.895Z,101374.69
2022-11-25T10:06:25.096Z,101379.81
2022-11-25T10:08:58.394Z,101383.97
2022-11-25T10:11:28.556Z,101393.56
2022-11-25T10:13:58.300Z,101391.50
2022-11-25T10:16:30.504Z,101396.34
2022-11-25T10:19:11.128Z,101397.84
2022-11-25T10:21:40.724Z,101393.81
2022-11-25T10:24:14.643Z,101402.44
2022-11-25T10:26:45.439Z,101401.66
2022-11-25T10:29:15.028Z,101410.28
2022-11-25T10:31:44.116Z,101405.53
2022-11-25T10:34:37.122Z,101403.28
2022-11-25T10:37:10.869Z,101402.97
2022-11-25T10:39:38.078Z,101410.09
2022-11-25T10:42:15.739Z,101417.44
2022-11-25T10:44:42.562Z,101417.47
2022-11-25T10:47:30.910Z,101425.44
2022-11-25T10:50:07.855Z,101424.63
2022-11-25T10:52:44.542Z,101424.63
2022-11-25T10:55:31.686Z,101433.66
2022-11-25T10:58:02.084Z,101443.41
2022-11-25T11:00:36.228Z,101433.78
2022-11-25T11:03:26.885Z,101441.78
2022-11-25T11:05:54.739Z,101443.59
2022-11-25T11:08:26.654Z,101453.31
2022-11-25T11:11:24.555Z,101451.59
2022-11-25T11:14:11.927Z,101453.25
2022-11-25T11:16:43.095Z,101456.81
2022-11-25T11:19:28.005Z,101463.75
2022-11-25T11:21:56.311Z,101462.47
2022-11-25T11:24:32.046Z,101480.69
2022-11-25T11:27:21.589Z,101486.88
2022-11-25T11:29:49.984Z,101491.03
2022-11-25T11:32:28.607Z,101488.25
2022-11-25T11:35:13.906Z,101498.47
2022-11-25T11:37:46.413Z,101504.22
2022-11-25T11:40:25.644Z,101503.03
2022-11-25T11:43:01.462Z,101513.19
2022-11-25T11:45:45.702Z,101517.41
2022-11-25T11:48:20.979Z,101514.47
2022-11-25T11:50:51.002Z,101515.09
2022-11-25T11:53:42.512Z,101517.22
2022-11-25T11:56:35.354Z,101511.53
2022-11-25T11:59:23.600Z,101515.72
2022-11-25T12:02:20.729Z,101512.84
2022-11-25T12:04:59.857Z,101513.47
2022-11-25T12:07:53.358Z,101514.16
2022-11-25T12:10:48.470Z,101530.72
2022-11-25T12:13:33.221Z,101525.34
2022-11-25T12:16:12.828Z,101533.22
2022-11-25T12:19:02.094Z,101531.72
2022-11-25T12:21:50.681Z,101541.56
2022-11-25T12:24:39.502Z,101544.81
2022-11-25T12:27:18.872Z,101550.72
2022-11-25T12:29:50.964Z,101544.38
2022-11-25T12:32:54.879Z,101563.97
2022-11-25T12:35:37.041Z,101559.38
2022-11-25T12:38:22.546Z,101563.75
2022-11-25T12:41:16.547Z,101560.59
2022-11-25T12:43:59.268Z,101574.59
2022-11-25T12:46:33.741Z,101568.69
2022-11-25T12:49:01.699Z,101576.53
2022-11-25T12:51:28.129Z,101586.00
2022-11-25T12:54:32.409Z,101576.41
2022-11-25T12:57:10.983Z,101584.09
2022-11-25T13:00:40.398Z,101581.16
2022-11-25T13:03:14.255Z,101593.47
2022-11-25T13:05:47.129Z,101590.19
2022-11-25T13:08:28.858Z,101596.72
2022-11-25T13:11:04.676Z,101595.31
2022-11-25T13:13:48.500Z,101602.59
2022-11-25T13:16:19.559Z,101611.78
2022-11-25T13:18:48.257Z,101604.09
2022-11-25T13:21:19.685Z,101609.38
2022-11-25T13:23:49.599Z,101611.09
2022-11-25T13:26:32.503Z,101618.63
2022-11-25T13:29:00.650Z,101616.38
2022-11-25T13:33:44.397Z,101621.00
2022-11-25T13:36:22.536Z,101638.53
2022-11-25T13:38:49.048Z,101633.50
2022-11-25T13:41:15.896Z,101632.75
2022-11-25T13:44:02.541Z,101643.31
2022-11-25T13:46:48.651Z,101641.59
2022-11-25T13:49:33.966Z,101636.84
2022-11-25T13:52:13.478Z,101654.00
2022-11-25T13:54:49.999Z,101650.38
2022-11-25T13:57:32.097Z,101653.06
2022-11-25T14:00:30.115Z,101653.16
2022-11-25T14:03:19.125Z,101662.69
2022-11-25T14:06:05.202Z,101661.72
2022-11-25T14:08:45.951Z,101664.13
2022-11-25T14:11:44.092Z,101666.38
2022-11-25T14:14:13.612Z,101666.97
2022-11-25T14:17:02.400Z,101671.09
2022-11-25T14:19:59.343Z,101680.38
2022-11-25T14:22:43.366Z,101684.41
2022-11-25T14:25:25.045Z,101698.88
2022-11-25T14:28:02.375Z,101692.41
2022-11-25T14:30:31.313Z,101695.75
2022-11-25T14:33:09.688Z,101700.28
2022-11-25T14:35:45.022Z,101711.69
2022-11-25T14:38:55.692Z,101719.81
2022-11-25T14:41:35.974Z,101724.25
2022-11-25T14:44:11.615Z,101730.25
2022-11-25T14:46:51.887Z,101731.81
2022-11-25T14:49:44.873Z,101735.97
2022-11-25T14:52:05.429Z,101737.38
2022-11-25T14:54:32.403Z,101752.09
2022-11-25T14:56:59.845Z,101752.66
2022-11-25T14:59:26.925Z,101756.84
2022-11-25T15:01:55.076Z,101755.03
2022-11-25T15:04:26.048Z,101759.19
2022-11-25T15:06:55.131Z,101768.44
2022-11-25T15:09:33.237Z,101773.44
2022-11-25T15:12:07.174Z,101774.97
2022-11-25T15:14:37.601Z,101780.03
2022-11-25T15:17:20.682Z,101790.34
2022-11-25T15:19:48.155Z,101790.09
2022-11-25T15:22:23.548Z,101790.84
2022-11-25T15:24:55.574Z,101789.75
2022-11-25T15:27:28.059Z,101794.84
2022-11-25T15:29:59.324Z,101792.97
2022-11-25T15:32:27.341Z,101794.59
2022-11-25T15:34:56.166Z,101808.38
2022-11-25T15:37:24.109Z,101819.72
2022-11-25T15:40:29.339Z,101818.72
2022-11-25T15:43:00.945Z,101829.00
2022-11-25T15:45:36.025Z,101833.19
2022-11-25T15:48:05.382Z,101837.56
2022-11-25T15:50:34.346Z,101841.81
2022-11-25T15:53:01.928Z,101860.00
2022-11-25T15:55:37.673Z,101852.13
2022-11-25T15:58:23.003Z,101857.47
2022-11-25T16:01:06.851Z,101876.56
2022-11-25T16:03:35.308Z,101872.16
2022-11-25T16:06:02.569Z,101884.22
2022-11-25T16:08:32.943Z,101883.16
2022-11-25T16:11:10.826Z,101889.97
2022-11-25T16:13:39.998Z,101894.06
2022-11-25T16:16:17.548Z,101893.94
2022-11-25T16:18:56.148Z,101898.94
2022-11-25T16:21:25.817Z,101905.59
2022-11-25T16:23:57.863Z,101907.91
2022-11-25T16:26:30.190Z,101906.72
2022-11-25T16:29:08.821Z,101911.66
2022-11-25T16:31:35.831Z,101922.59
2022-11-25T16:34:14.148Z,101930.03
2022-11-25T16:36:42.970Z,101927.78
2022-11-25T16:39:10.105Z,101931.66
2022-11-25T16:41:37.561Z,101937.28
2022-11-25T16:44:21.286Z,101937.00
2022-11-25T16:46:51.231Z,101937.56
2022-11-25T16:49:19.951Z,101944.13
2022-11-25T16:51:47.068Z,101949.09
2022-11-25T16:54:18.077Z,101957.50
2022-11-25T16:56:46.315Z,101967.50
2022-11-25T16:59:18.767Z,101977.78
2022-11-25T17:01:47.039Z,101979.88
2022-11-25T17:04:15.425Z,101984.06
2022-11-25T17:06:43.162Z,101991.47
2022-11-25T17:09:16.481Z,101988.53
2022-11-25T17:11:49.236Z,102005.00
2022-11-25T17:14:27.856Z,101997.75
2022-11-25T17:16:54.905Z,102001.75
2022-11-25T17:19:22.757Z,102003.59
2022-11-25T17:21:50.177Z,102008.69
2022-11-25T17:24:22.949Z,102015.50
2022-11-25T17:26:56.101Z,102022.28
2022-11-25T17:29:31.430Z,102029.91
2022-11-25T17:32:00.730Z,102031.44
2022-11-25T17:34:34.920Z,102044.53
2022-11-25T17:37:12.124Z,102042.84
2022-11-25T17:39:39.345Z,102054.06
2022-11-25T17:46:15.533Z,102064.72
2022-11-25T17:48:43.629Z,102068.31
2022-11-25T17:51:13.191Z,102072.44
2022-11-25T17:53:41.131Z,102079.19
2022-11-25T17:56:30.388Z,102086.84
2022-11-25T17:59:04.839Z,102084.63
2022-11-25T18:01:32.426Z,102082.69
2022-11-25T18:04:16.263Z,102088.53
2022-11-25T18:06:43.416Z,102097.25
2022-11-25T18:09:12.882Z,102089.84
2022-11-25T18:11:46.659Z,102099.19
2022-11-25T18:14:20.338Z,102098.22
2022-11-25T18:16:46.996Z,102106.91
2022-11-25T18:19:14.387Z,102110.25
2022-11-25T18:21:41.446Z,102117.94
2022-11-25T18:24:08.153Z,102127.53
2022-11-25T18:26:42.293Z,102122.25
2022-11-25T18:29:15.439Z,102125.00
2022-11-25T18:31:42.365Z,102129.13
2022-11-25T18:34:16.118Z,102121.13
2022-11-25T18:36:44.223Z,102136.53
2022-11-25T18:39:11.864Z,102145.84
2022-11-25T18:41:40.616Z,102144.78
2022-11-25T18:44:23.054Z,102148.03
2022-11-25T18:46:52.658Z,102149.63
2022-11-25T18:49:19.734Z,102151.19
2022-11-25T18:51:46.369Z,102151.81
2022-11-25T18:54:13.563Z,102156.66
2022-11-25T18:56:41.846Z,102162.66
2022-11-25T18:59:13.424Z,102154.88
2022-11-25T19:01:41.680Z,102166.81
2022-11-25T19:04:18.040Z,102162.06
2022-11-25T19:06:45.461Z,102160.66
2022-11-25T19:09:12.985Z,102178.75
2022-11-25T19:11:44.823Z,102174.97
2022-11-25T19:14:16.262Z,102192.31
2022-11-25T19:16:47.198Z,102191.31
2022-11-25T19:19:16.965Z,102201.59
2022-11-25T19:21:43.927Z,102200.72
2022-11-25T19:24:16.441Z,102210.13
2022-11-25T19:27:06.819Z,102201.19
2022-11-25T19:30:32.946Z,102207.97
2022-11-25T19:33:02.317Z,102213.69
2022-11-25T19:35:36.245Z,102213.78
2022-11-25T19:38:21.578Z,102213.00
2022-11-25T19:40:49.452Z,102226.75
2022-11-25T19:43:16.385Z,102226.13
2022-11-25T19:45:44.093Z,102227.75
2022-11-25T19:48:17.880Z,102238.38
2022-11-25T19:50:46.522Z,102224.16
2022-11-25T19:53:20.005Z,102243.31
2022-11-25T19:55:48.264Z,102257.69
2022-11-25T19:58:15.545Z,102257.53
2022-11-25T20:00:44.145Z,102255.47
2022-11-25T20:03:23.102Z,102255.19
2022-11-25T20:05:52.836Z,102255.81
2022-11-25T20:08:25.970Z,102257.41
2022-11-25T20:10:54.427Z,102263.31
2022-11-25T20:13:22.997Z,102261.44
2022-11-25T20:15:50.806Z,102265.63
2022-11-25T20:18:21.245Z,102266.31
2022-11-25T20:20:56.119Z,102273.94
2022-11-25T20:23:30.368Z,102280.53
2022-11-25T20:25:57.304Z,102281.44
2022-11-25T20:28:28.294Z,102285.59
2022-11-25T20:30:59.749Z,102296.88
2022-11-25T20:33:27.262Z,102299.19
2022-11-25T20:36:04.351Z,102295.72
2022-11-25T20:38:33.327Z,102307.56
2022-11-25T20:41:00.711Z,102304.00
2022-11-25T20:43:33.527Z,102306.50
2022-11-25T20:46:01.953Z,102304.53
2022-11-25T20:48:29.564Z,102317.38
2022-11-25T20:51:00.611Z,102321.41
2022-11-25T20:53:30.652Z,102320.38
2022-11-25T20:55:58.254Z,102327.34
2022-11-25T20:58:32.531Z,102317.69
2022-11-25T21:00:59.679Z,102328.06
2022-11-25T21:03:27.052Z,102336.63
2022-11-25T21:05:56.076Z,102331.25
2022-11-25T21:08:32.180Z,102338.22
2022-11-25T21:10:59.106Z,102346.09
2022-11-25T21:13:29.184Z,102345.22
2022-11-25T21:15:59.564Z,102347.88
2022-11-25T21:18:28.591Z,102343.59
2022-11-25T21:20:57.960Z,102350.56
2022-11-25T21:23:28.801Z,102353.06
2022-11-25T21:26:01.341Z,102365.25
2022-11-25T21:28:28.433Z,102370.44
2022-11-25T21:30:55.051Z,102372.94
2022-11-25T21:33:22.143Z,102377.91
2022-11-25T21:35:51.194Z,102379.47
2022-11-25T21:38:24.110Z,102388.97
2022-11-25T21:40:54.542Z,102396.75
2022-11-25T21:43:28.476Z,102397.63
2022-11-25T21:46:11.753Z,102402.13
2022-11-25T21:48:39.843Z,102405.59
2022-11-25T21:51:06.738Z,102408.28
2022-11-25T21:53:37.257Z,102408.28
2022-11-25T21:56:10.907Z,102411.19
2022-11-25T21:58:38.837Z,102410.28
2022-11-25T22:01:06.126Z,102414.69
2022-11-25T22:03:33.272Z,102421.56
2022-11-25T22:06:00.207Z,102413.69
2022-11-25T22:08:27.219Z,102415.56
2022-11-25T22:10:55.979Z,102419.47
2022-11-25T22:13:28.212Z,102426.34
2022-11-25T22:15:57.839Z,102421.16
2022-11-25T22:18:36.432Z,102429.75
2022-11-25T22:21:03.871Z,102430.66
2022-11-25T22:23:30.713Z,102431.31
2022-11-25T22:25:57.720Z,102432.00
2022-11-25T22:28:30.033Z,102432.00
2022-11-25T22:31:05.012Z,102433.22
2022-11-25T22:33:34.916Z,102435.63
2022-11-25T22:36:02.288Z,102439.00
2022-11-25T22:38:30.020Z,102439.78
2022-11-25T22:41:01.012Z,102452.56
2022-11-25T22:43:38.864Z,102448.16
2022-11-25T22:46:05.790Z,102454.84
2022-11-25T22:48:35.862Z,102451.13
2022-11-25T22:51:03.054Z,102465.00
2022-11-25T22:53:30.080Z,102457.13
2022-11-25T22:55:58.501Z,102464.03
2022-11-25T22:58:26.801Z,102461.22
2022-11-25T23:00:55.785Z,102468.09
2022-11-25T23:03:27.434Z,102468.09
2022-11-25T23:05:54.414Z,102473.16
2022-11-25T23:08:28.415Z,102473.06
2022-11-25T23:10:56.577Z,102476.34
2022-11-25T23:13:25.917Z,102475.44
2022-11-25T23:15:54.755Z,102477.03
2022-11-25T23:18:45.458Z,102478.81
2022-11-25T23:21:21.776Z,102484.81
2022-11-25T23:23:48.318Z,102495.97
2022-11-25T23:26:15.842Z,102495.66
2022-11-25T23:28:43.071Z,102502.50
2022-11-25T23:31:13.770Z,102497.22
2022-11-25T23:33:51.583Z,102498.84
2022-11-25T23:36:24.819Z,102507.28
2022-11-25T23:39:03.022Z,102515.34
2022-11-25T23:41:31.095Z,102521.44
2022-11-25T23:44:02.100Z,102519.88
2022-11-25T23:46:33.382Z,102526.84
2022-11-25T23:49:03.557Z,102523.94
2022-11-25T23:51:31.285Z,102519.66
2022-11-25T23:53:58.940Z,102524.84
2022-11-25T23:56:28.269Z,102523.81
2022-11-25T23:58:54.805Z,102527.31
